sensor_id;sensor_type;location;lat;lon;timestamp;temperature;humidity
14210;DHT22;7188;56.070;12.698;2023-10-31T00:00:42;9.30;99.90
14210;DHT22;7188;56.070;12.698;2023-10-31T00:03:08;9.30;99.90
14210;DHT22;7188;56.070;12.698;2023-10-31T00:05:33;9.30;99.90
14210;DHT22;7188;56.070;12.698;2023-10-31T00:07:59;9.30;99.90
14210;DHT22;7188;56.070;12.698;2023-10-31T00:10:24;9.20;99.90
14210;DHT22;7188;56.070;12.698;2023-10-31T00:12:50;9.20;99.90
14210;DHT22;7188;56.070;12.698;2023-10-31T00:15:16;9.20;99.90
14210;DHT22;7188;56.070;12.698;2023-10-31T00:17:41;9.20;99.90
14210;DHT22;7188;56.070;12.698;2023-10-31T00:20:07;9.20;99.90
14210;DHT22;7188;56.070;12.698;2023-10-31T00:22:33;9.20;99.90
14210;DHT22;7188;56.070;12.698;2023-10-31T00:24:59;9.20;99.90
14210;DHT22;7188;56.070;12.698;2023-10-31T00:27:24;9.20;99.90
14210;DHT22;7188;56.070;12.698;2023-10-31T00:29:50;9.30;99.90
14210;DHT22;7188;56.070;12.698;2023-10-31T00:32:15;9.30;99.90
14210;DHT22;7188;56.070;12.698;2023-10-31T00:34:41;9.30;99.90
14210;DHT22;7188;56.070;12.698;2023-10-31T00:37:06;9.30;99.90
14210;DHT22;7188;56.070;12.698;2023-10-31T00:39:32;9.30;99.90
14210;DHT22;7188;56.070;12.698;2023-10-31T00:41:59;9.30;99.90
14210;DHT22;7188;56.070;12.698;2023-10-31T00:44:25;9.30;99.90
14210;DHT22;7188;56.070;12.698;2023-10-31T00:46:50;9.30;99.90
14210;DHT22;7188;56.070;12.698;2023-10-31T00:49:16;9.30;99.90
14210;DHT22;7188;56.070;12.698;2023-10-31T00:51:42;9.30;99.90
14210;DHT22;7188;56.070;12.698;2023-10-31T00:54:07;9.30;99.90
14210;DHT22;7188;56.070;12.698;2023-10-31T00:56:33;9.20;99.90
14210;DHT22;7188;56.070;12.698;2023-10-31T00:59:00;9.30;99.90
14210;DHT22;7188;56.070;12.698;2023-10-31T01:01:25;9.20;99.90
14210;DHT22;7188;56.070;12.698;2023-10-31T01:03:51;9.20;99.90
14210;DHT22;7188;56.070;12.698;2023-10-31T01:06:16;9.20;99.90
14210;DHT22;7188;56.070;12.698;2023-10-31T01:08:42;9.10;99.90
14210;DHT22;7188;56.070;12.698;2023-10-31T01:11:08;9.10;99.90
14210;DHT22;7188;56.070;12.698;2023-10-31T01:13:33;9.10;99.90
14210;DHT22;7188;56.070;12.698;2023-10-31T01:15:59;9.10;99.90
14210;DHT22;7188;56.070;12.698;2023-10-31T01:18:24;9.00;99.90
14210;DHT22;7188;56.070;12.698;2023-10-31T01:20:50;9.00;99.90
14210;DHT22;7188;56.070;12.698;2023-10-31T01:23:16;9.00;99.90
14210;DHT22;7188;56.070;12.698;2023-10-31T01:25:41;9.00;99.90
14210;DHT22;7188;56.070;12.698;2023-10-31T01:28:07;9.00;99.90
14210;DHT22;7188;56.070;12.698;2023-10-31T01:30:32;8.90;99.90
14210;DHT22;7188;56.070;12.698;2023-10-31T01:32:58;8.90;99.90
14210;DHT22;7188;56.070;12.698;2023-10-31T01:35:24;8.90;99.90
14210;DHT22;7188;56.070;12.698;2023-10-31T01:37:49;8.90;99.90
14210;DHT22;7188;56.070;12.698;2023-10-31T01:40:15;8.90;99.90
14210;DHT22;7188;56.070;12.698;2023-10-31T01:42:41;8.90;99.90
14210;DHT22;7188;56.070;12.698;2023-10-31T01:45:07;9.10;99.90
14210;DHT22;7188;56.070;12.698;2023-10-31T01:47:33;9.00;99.90
14210;DHT22;7188;56.070;12.698;2023-10-31T01:49:59;9.10;99.90
14210;DHT22;7188;56.070;12.698;2023-10-31T01:52:26;9.00;99.90
14210;DHT22;7188;56.070;12.698;2023-10-31T01:54:52;9.00;99.90
14210;DHT22;7188;56.070;12.698;2023-10-31T01:57:21;9.00;99.90
14210;DHT22;7188;56.070;12.698;2023-10-31T01:59:47;9.00;99.90
14210;DHT22;7188;56.070;12.698;2023-10-31T02:02:13;9.10;99.90
14210;DHT22;7188;56.070;12.698;2023-10-31T02:04:39;9.10;99.90
14210;DHT22;7188;56.070;12.698;2023-10-31T02:07:05;9.10;99.90
14210;DHT22;7188;56.070;12.698;2023-10-31T02:09:32;9.00;99.90
14210;DHT22;7188;56.070;12.698;2023-10-31T02:12:07;9.10;99.90
14210;DHT22;7188;56.070;12.698;2023-10-31T02:14:32;9.10;99.90
14210;DHT22;7188;56.070;12.698;2023-10-31T02:16:58;9.10;99.90
14210;DHT22;7188;56.070;12.698;2023-10-31T02:19:23;9.10;99.90
14210;DHT22;7188;56.070;12.698;2023-10-31T02:21:49;9.10;99.90
14210;DHT22;7188;56.070;12.698;2023-10-31T02:24:15;9.10;99.90
14210;DHT22;7188;56.070;12.698;2023-10-31T02:26:40;9.20;99.90
14210;DHT22;7188;56.070;12.698;2023-10-31T02:29:06;9.20;99.90
14210;DHT22;7188;56.070;12.698;2023-10-31T02:31:32;9.20;99.90
14210;DHT22;7188;56.070;12.698;2023-10-31T02:33:57;9.20;99.90
14210;DHT22;7188;56.070;12.698;2023-10-31T02:36:23;9.20;99.90
14210;DHT22;7188;56.070;12.698;2023-10-31T02:38:49;9.20;99.90
14210;DHT22;7188;56.070;12.698;2023-10-31T02:41:15;9.20;99.90
14210;DHT22;7188;56.070;12.698;2023-10-31T02:43:41;9.20;99.90
14210;DHT22;7188;56.070;12.698;2023-10-31T02:46:07;9.30;99.90
14210;DHT22;7188;56.070;12.698;2023-10-31T02:48:33;9.20;99.90
14210;DHT22;7188;56.070;12.698;2023-10-31T02:51:05;9.20;99.90
14210;DHT22;7188;56.070;12.698;2023-10-31T02:53:31;9.30;99.90
14210;DHT22;7188;56.070;12.698;2023-10-31T02:55:57;9.30;99.90
14210;DHT22;7188;56.070;12.698;2023-10-31T02:58:23;9.30;99.90
14210;DHT22;7188;56.070;12.698;2023-10-31T03:00:48;9.20;99.90
14210;DHT22;7188;56.070;12.698;2023-10-31T03:03:14;9.20;99.90
14210;DHT22;7188;56.070;12.698;2023-10-31T03:05:39;9.20;99.90
14210;DHT22;7188;56.070;12.698;2023-10-31T03:08:05;9.20;99.90
14210;DHT22;7188;56.070;12.698;2023-10-31T03:10:32;9.10;99.90
14210;DHT22;7188;56.070;12.698;2023-10-31T03:12:58;9.20;99.90
14210;DHT22;7188;56.070;12.698;2023-10-31T03:15:24;9.20;99.90
14210;DHT22;7188;56.070;12.698;2023-10-31T03:17:50;9.20;99.90
14210;DHT22;7188;56.070;12.698;2023-10-31T03:20:16;9.30;99.90
14210;DHT22;7188;56.070;12.698;2023-10-31T03:22:41;9.30;99.90
14210;DHT22;7188;56.070;12.698;2023-10-31T03:25:07;9.20;99.90
14210;DHT22;7188;56.070;12.698;2023-10-31T03:27:32;9.20;99.90
14210;DHT22;7188;56.070;12.698;2023-10-31T03:29:58;9.20;99.90
14210;DHT22;7188;56.070;12.698;2023-10-31T03:32:24;9.20;99.90
14210;DHT22;7188;56.070;12.698;2023-10-31T03:34:49;9.20;99.90
14210;DHT22;7188;56.070;12.698;2023-10-31T03:37:15;9.20;99.90
14210;DHT22;7188;56.070;12.698;2023-10-31T03:39:40;9.20;99.90
14210;DHT22;7188;56.070;12.698;2023-10-31T03:42:06;9.20;99.90
14210;DHT22;7188;56.070;12.698;2023-10-31T03:44:31;9.20;99.90
14210;DHT22;7188;56.070;12.698;2023-10-31T03:46:57;9.20;99.90
14210;DHT22;7188;56.070;12.698;2023-10-31T03:49:23;9.20;99.90
14210;DHT22;7188;56.070;12.698;2023-10-31T03:51:48;9.20;99.90
14210;DHT22;7188;56.070;12.698;2023-10-31T03:54:14;9.20;99.90
14210;DHT22;7188;56.070;12.698;2023-10-31T03:56:40;9.20;99.90
14210;DHT22;7188;56.070;12.698;2023-10-31T03:59:06;9.20;99.90
14210;DHT22;7188;56.070;12.698;2023-10-31T04:01:32;9.30;99.90
14210;DHT22;7188;56.070;12.698;2023-10-31T04:03:57;9.20;99.90
14210;DHT22;7188;56.070;12.698;2023-10-31T04:06:23;9.20;99.90
14210;DHT22;7188;56.070;12.698;2023-10-31T04:08:48;9.20;99.90
14210;DHT22;7188;56.070;12.698;2023-10-31T04:11:14;9.20;99.90
14210;DHT22;7188;56.070;12.698;2023-10-31T04:13:40;9.20;99.90
14210;DHT22;7188;56.070;12.698;2023-10-31T04:16:06;9.30;99.90
14210;DHT22;7188;56.070;12.698;2023-10-31T04:18:31;9.30;99.90
14210;DHT22;7188;56.070;12.698;2023-10-31T04:20:57;9.30;99.90
14210;DHT22;7188;56.070;12.698;2023-10-31T04:23:22;9.20;99.90
14210;DHT22;7188;56.070;12.698;2023-10-31T04:25:49;9.20;99.90
14210;DHT22;7188;56.070;12.698;2023-10-31T04:28:15;9.20;99.90
14210;DHT22;7188;56.070;12.698;2023-10-31T04:30:40;9.10;99.90
14210;DHT22;7188;56.070;12.698;2023-10-31T04:33:06;9.10;99.90
14210;DHT22;7188;56.070;12.698;2023-10-31T04:35:31;9.10;99.90
14210;DHT22;7188;56.070;12.698;2023-10-31T04:37:57;9.10;99.90
14210;DHT22;7188;56.070;12.698;2023-10-31T04:40:23;9.10;99.90
14210;DHT22;7188;56.070;12.698;2023-10-31T04:42:48;9.00;99.90
14210;DHT22;7188;56.070;12.698;2023-10-31T04:45:14;9.10;99.90
14210;DHT22;7188;56.070;12.698;2023-10-31T04:47:41;9.00;99.90
14210;DHT22;7188;56.070;12.698;2023-10-31T04:50:07;9.00;99.90
14210;DHT22;7188;56.070;12.698;2023-10-31T04:52:32;9.00;99.90
14210;DHT22;7188;56.070;12.698;2023-10-31T04:54:58;8.90;99.90
14210;DHT22;7188;56.070;12.698;2023-10-31T04:57:23;8.90;99.90
14210;DHT22;7188;56.070;12.698;2023-10-31T04:59:49;8.80;99.90
14210;DHT22;7188;56.070;12.698;2023-10-31T05:02:15;8.70;99.90
14210;DHT22;7188;56.070;12.698;2023-10-31T05:04:41;8.70;99.90
14210;DHT22;7188;56.070;12.698;2023-10-31T05:07:07;8.70;99.90
14210;DHT22;7188;56.070;12.698;2023-10-31T05:09:33;8.70;99.90
14210;DHT22;7188;56.070;12.698;2023-10-31T05:11:59;8.70;99.90
14210;DHT22;7188;56.070;12.698;2023-10-31T05:14:25;8.70;99.90
14210;DHT22;7188;56.070;12.698;2023-10-31T05:16:51;8.60;99.90
14210;DHT22;7188;56.070;12.698;2023-10-31T05:19:17;8.60;99.90
14210;DHT22;7188;56.070;12.698;2023-10-31T05:21:42;8.60;99.90
14210;DHT22;7188;56.070;12.698;2023-10-31T05:24:08;8.60;99.90
14210;DHT22;7188;56.070;12.698;2023-10-31T05:26:34;8.50;99.90
14210;DHT22;7188;56.070;12.698;2023-10-31T05:28:59;8.50;99.90
14210;DHT22;7188;56.070;12.698;2023-10-31T05:31:25;8.40;99.90
14210;DHT22;7188;56.070;12.698;2023-10-31T05:33:54;8.40;99.90
14210;DHT22;7188;56.070;12.698;2023-10-31T05:36:25;8.40;99.90
14210;DHT22;7188;56.070;12.698;2023-10-31T05:38:51;8.40;99.90
14210;DHT22;7188;56.070;12.698;2023-10-31T05:41:16;8.40;99.90
14210;DHT22;7188;56.070;12.698;2023-10-31T05:43:42;8.30;99.90
14210;DHT22;7188;56.070;12.698;2023-10-31T05:46:08;8.40;99.90
14210;DHT22;7188;56.070;12.698;2023-10-31T05:48:39;8.40;99.90
14210;DHT22;7188;56.070;12.698;2023-10-31T05:51:10;8.40;99.90
14210;DHT22;7188;56.070;12.698;2023-10-31T05:53:37;8.40;99.90
14210;DHT22;7188;56.070;12.698;2023-10-31T05:56:04;8.40;99.90
14210;DHT22;7188;56.070;12.698;2023-10-31T05:58:29;8.40;99.90
14210;DHT22;7188;56.070;12.698;2023-10-31T06:00:55;8.30;99.90
14210;DHT22;7188;56.070;12.698;2023-10-31T06:03:21;8.30;99.90
14210;DHT22;7188;56.070;12.698;2023-10-31T06:05:47;8.30;99.90
14210;DHT22;7188;56.070;12.698;2023-10-31T06:08:12;8.30;99.90
14210;DHT22;7188;56.070;12.698;2023-10-31T06:10:38;8.30;99.90
14210;DHT22;7188;56.070;12.698;2023-10-31T06:13:03;8.40;99.90
14210;DHT22;7188;56.070;12.698;2023-10-31T06:15:29;8.40;99.90
14210;DHT22;7188;56.070;12.698;2023-10-31T06:17:55;8.40;99.90
14210;DHT22;7188;56.070;12.698;2023-10-31T06:20:20;8.40;99.90
14210;DHT22;7188;56.070;12.698;2023-10-31T06:22:46;8.40;99.90
14210;DHT22;7188;56.070;12.698;2023-10-31T06:25:11;8.40;99.90
14210;DHT22;7188;56.070;12.698;2023-10-31T06:27:37;8.40;99.90
14210;DHT22;7188;56.070;12.698;2023-10-31T06:30:03;8.40;99.90
14210;DHT22;7188;56.070;12.698;2023-10-31T06:32:29;8.40;99.90
14210;DHT22;7188;56.070;12.698;2023-10-31T06:34:54;8.40;99.90
14210;DHT22;7188;56.070;12.698;2023-10-31T06:37:20;8.40;99.90
14210;DHT22;7188;56.070;12.698;2023-10-31T06:39:45;8.40;99.90
14210;DHT22;7188;56.070;12.698;2023-10-31T06:42:11;8.40;99.90
14210;DHT22;7188;56.070;12.698;2023-10-31T06:44:36;8.40;99.90
14210;DHT22;7188;56.070;12.698;2023-10-31T06:47:02;8.40;99.90
14210;DHT22;7188;56.070;12.698;2023-10-31T06:49:28;8.50;99.90
14210;DHT22;7188;56.070;12.698;2023-10-31T06:51:53;8.50;99.90
14210;DHT22;7188;56.070;12.698;2023-10-31T06:54:19;8.50;99.90
14210;DHT22;7188;56.070;12.698;2023-10-31T06:56:45;8.50;99.90
14210;DHT22;7188;56.070;12.698;2023-10-31T06:59:10;8.60;99.90
14210;DHT22;7188;56.070;12.698;2023-10-31T07:01:36;8.60;99.90
14210;DHT22;7188;56.070;12.698;2023-10-31T07:04:03;8.60;99.90
14210;DHT22;7188;56.070;12.698;2023-10-31T07:06:28;8.60;99.90
14210;DHT22;7188;56.070;12.698;2023-10-31T07:08:54;8.60;99.90
14210;DHT22;7188;56.070;12.698;2023-10-31T07:11:20;8.60;99.90
14210;DHT22;7188;56.070;12.698;2023-10-31T07:13:45;8.60;99.90
14210;DHT22;7188;56.070;12.698;2023-10-31T07:16:11;8.60;99.90
14210;DHT22;7188;56.070;12.698;2023-10-31T07:18:36;8.60;99.90
14210;DHT22;7188;56.070;12.698;2023-10-31T07:21:03;8.60;99.90
14210;DHT22;7188;56.070;12.698;2023-10-31T07:23:28;8.60;99.90
14210;DHT22;7188;56.070;12.698;2023-10-31T07:25:54;8.70;99.90
14210;DHT22;7188;56.070;12.698;2023-10-31T07:28:20;8.60;99.90
14210;DHT22;7188;56.070;12.698;2023-10-31T07:30:45;8.70;99.90
14210;DHT22;7188;56.070;12.698;2023-10-31T07:33:11;8.70;99.90
14210;DHT22;7188;56.070;12.698;2023-10-31T07:35:37;8.70;99.90
14210;DHT22;7188;56.070;12.698;2023-10-31T07:38:02;8.80;99.90
14210;DHT22;7188;56.070;12.698;2023-10-31T07:40:28;8.80;99.90
14210;DHT22;7188;56.070;12.698;2023-10-31T07:42:54;8.90;99.90
14210;DHT22;7188;56.070;12.698;2023-10-31T07:45:20;8.90;99.90
14210;DHT22;7188;56.070;12.698;2023-10-31T07:47:45;9.00;99.90
14210;DHT22;7188;56.070;12.698;2023-10-31T07:50:11;9.00;99.90
14210;DHT22;7188;56.070;12.698;2023-10-31T07:52:38;9.00;99.90
14210;DHT22;7188;56.070;12.698;2023-10-31T07:55:04;9.00;99.90
14210;DHT22;7188;56.070;12.698;2023-10-31T07:57:30;9.10;99.90
14210;DHT22;7188;56.070;12.698;2023-10-31T07:59:55;9.10;99.90
14210;DHT22;7188;56.070;12.698;2023-10-31T08:02:21;9.20;99.90
14210;DHT22;7188;56.070;12.698;2023-10-31T08:04:46;9.30;99.90
14210;DHT22;7188;56.070;12.698;2023-10-31T08:07:12;9.30;99.90
14210;DHT22;7188;56.070;12.698;2023-10-31T08:09:37;9.40;99.90
14210;DHT22;7188;56.070;12.698;2023-10-31T08:12:03;9.40;99.90
14210;DHT22;7188;56.070;12.698;2023-10-31T08:14:29;9.40;99.90
14210;DHT22;7188;56.070;12.698;2023-10-31T08:16:54;9.50;99.90
14210;DHT22;7188;56.070;12.698;2023-10-31T08:19:20;9.50;99.90
14210;DHT22;7188;56.070;12.698;2023-10-31T08:21:46;9.50;99.90
14210;DHT22;7188;56.070;12.698;2023-10-31T08:24:11;9.60;99.90
14210;DHT22;7188;56.070;12.698;2023-10-31T08:26:38;9.50;99.90
14210;DHT22;7188;56.070;12.698;2023-10-31T08:29:04;9.60;99.90
14210;DHT22;7188;56.070;12.698;2023-10-31T08:31:30;9.50;99.90
14210;DHT22;7188;56.070;12.698;2023-10-31T08:33:55;9.60;99.90
14210;DHT22;7188;56.070;12.698;2023-10-31T08:36:21;9.60;99.90
14210;DHT22;7188;56.070;12.698;2023-10-31T08:38:47;9.60;99.90
14210;DHT22;7188;56.070;12.698;2023-10-31T08:41:14;9.60;99.90
14210;DHT22;7188;56.070;12.698;2023-10-31T08:43:45;9.50;99.90
14210;DHT22;7188;56.070;12.698;2023-10-31T08:46:11;9.50;99.90
14210;DHT22;7188;56.070;12.698;2023-10-31T08:48:37;9.40;99.90
14210;DHT22;7188;56.070;12.698;2023-10-31T08:51:04;9.40;99.90
14210;DHT22;7188;56.070;12.698;2023-10-31T08:53:29;9.50;99.90
14210;DHT22;7188;56.070;12.698;2023-10-31T08:55:55;9.50;99.90
14210;DHT22;7188;56.070;12.698;2023-10-31T08:58:22;9.50;99.90
14210;DHT22;7188;56.070;12.698;2023-10-31T09:00:47;9.50;99.90
14210;DHT22;7188;56.070;12.698;2023-10-31T09:03:13;9.50;99.90
14210;DHT22;7188;56.070;12.698;2023-10-31T09:05:40;9.50;99.90
14210;DHT22;7188;56.070;12.698;2023-10-31T09:08:05;9.50;99.90
14210;DHT22;7188;56.070;12.698;2023-10-31T09:10:33;9.50;99.90
14210;DHT22;7188;56.070;12.698;2023-10-31T09:12:59;9.50;99.90
14210;DHT22;7188;56.070;12.698;2023-10-31T09:15:25;9.50;99.90
14210;DHT22;7188;56.070;12.698;2023-10-31T09:17:50;9.50;99.90
14210;DHT22;7188;56.070;12.698;2023-10-31T09:20:16;9.40;99.90
14210;DHT22;7188;56.070;12.698;2023-10-31T09:22:42;9.50;99.90
14210;DHT22;7188;56.070;12.698;2023-10-31T09:25:07;9.50;99.90
14210;DHT22;7188;56.070;12.698;2023-10-31T09:27:33;9.50;99.90
14210;DHT22;7188;56.070;12.698;2023-10-31T09:29:59;9.50;99.90
14210;DHT22;7188;56.070;12.698;2023-10-31T09:32:24;9.50;99.90
14210;DHT22;7188;56.070;12.698;2023-10-31T09:34:50;9.50;99.90
14210;DHT22;7188;56.070;12.698;2023-10-31T09:37:15;9.50;99.90
14210;DHT22;7188;56.070;12.698;2023-10-31T09:39:41;9.50;99.90
14210;DHT22;7188;56.070;12.698;2023-10-31T09:42:07;9.40;99.90
14210;DHT22;7188;56.070;12.698;2023-10-31T09:44:33;9.50;99.90
14210;DHT22;7188;56.070;12.698;2023-10-31T09:47:00;9.50;99.90
14210;DHT22;7188;56.070;12.698;2023-10-31T09:49:27;9.40;99.90
14210;DHT22;7188;56.070;12.698;2023-10-31T09:51:53;9.20;99.90
14210;DHT22;7188;56.070;12.698;2023-10-31T09:54:19;9.20;99.90
14210;DHT22;7188;56.070;12.698;2023-10-31T09:56:45;9.20;99.90
14210;DHT22;7188;56.070;12.698;2023-10-31T09:59:11;9.20;99.90
14210;DHT22;7188;56.070;12.698;2023-10-31T10:01:39;9.10;99.90
14210;DHT22;7188;56.070;12.698;2023-10-31T10:04:05;9.10;99.90
14210;DHT22;7188;56.070;12.698;2023-10-31T10:06:31;9.10;99.90
14210;DHT22;7188;56.070;12.698;2023-10-31T10:08:57;9.10;99.90
14210;DHT22;7188;56.070;12.698;2023-10-31T10:11:23;9.20;99.90
14210;DHT22;7188;56.070;12.698;2023-10-31T10:13:51;9.10;99.90
14210;DHT22;7188;56.070;12.698;2023-10-31T10:16:31;9.10;99.90
14210;DHT22;7188;56.070;12.698;2023-10-31T10:18:59;9.00;99.90
14210;DHT22;7188;56.070;12.698;2023-10-31T10:21:56;9.00;99.90
14210;DHT22;7188;56.070;12.698;2023-10-31T10:24:23;9.00;99.90
14210;DHT22;7188;56.070;12.698;2023-10-31T10:26:50;9.00;99.90
14210;DHT22;7188;56.070;12.698;2023-10-31T10:29:17;9.00;99.90
14210;DHT22;7188;56.070;12.698;2023-10-31T10:31:43;9.00;99.90
14210;DHT22;7188;56.070;12.698;2023-10-31T10:34:10;9.00;99.90
14210;DHT22;7188;56.070;12.698;2023-10-31T10:36:36;9.00;99.90
14210;DHT22;7188;56.070;12.698;2023-10-31T10:39:01;9.00;99.90
14210;DHT22;7188;56.070;12.698;2023-10-31T10:41:29;9.00;99.90
14210;DHT22;7188;56.070;12.698;2023-10-31T10:44:04;9.00;99.90
14210;DHT22;7188;56.070;12.698;2023-10-31T10:46:34;9.10;99.90
14210;DHT22;7188;56.070;12.698;2023-10-31T10:49:05;9.00;99.90
14210;DHT22;7188;56.070;12.698;2023-10-31T10:51:46;9.00;99.90
14210;DHT22;7188;56.070;12.698;2023-10-31T10:54:18;9.00;99.90
14210;DHT22;7188;56.070;12.698;2023-10-31T10:56:54;9.00;99.90
14210;DHT22;7188;56.070;12.698;2023-10-31T10:59:41;9.00;99.90
14210;DHT22;7188;56.070;12.698;2023-10-31T11:02:07;9.00;99.90
14210;DHT22;7188;56.070;12.698;2023-10-31T11:04:34;9.00;99.90
14210;DHT22;7188;56.070;12.698;2023-10-31T11:07:02;9.00;99.90
14210;DHT22;7188;56.070;12.698;2023-10-31T11:09:30;9.00;99.90
14210;DHT22;7188;56.070;12.698;2023-10-31T11:11:57;8.90;99.90
14210;DHT22;7188;56.070;12.698;2023-10-31T11:14:23;8.90;99.90
14210;DHT22;7188;56.070;12.698;2023-10-31T11:16:55;8.90;99.90
14210;DHT22;7188;56.070;12.698;2023-10-31T11:19:23;8.90;99.90
14210;DHT22;7188;56.070;12.698;2023-10-31T11:22:01;8.90;99.90
14210;DHT22;7188;56.070;12.698;2023-10-31T11:24:33;8.90;99.90
14210;DHT22;7188;56.070;12.698;2023-10-31T11:27:01;8.90;99.90
14210;DHT22;7188;56.070;12.698;2023-10-31T11:29:27;8.90;99.90
14210;DHT22;7188;56.070;12.698;2023-10-31T11:31:55;8.80;99.90
14210;DHT22;7188;56.070;12.698;2023-10-31T11:34:22;8.80;99.90
14210;DHT22;7188;56.070;12.698;2023-10-31T11:36:48;8.80;99.90
14210;DHT22;7188;56.070;12.698;2023-10-31T11:39:17;8.80;99.90
14210;DHT22;7188;56.070;12.698;2023-10-31T11:41:50;8.80;99.90
14210;DHT22;7188;56.070;12.698;2023-10-31T11:44:17;8.80;99.90
14210;DHT22;7188;56.070;12.698;2023-10-31T11:46:43;8.80;99.90
14210;DHT22;7188;56.070;12.698;2023-10-31T11:49:09;8.80;99.90
14210;DHT22;7188;56.070;12.698;2023-10-31T11:51:34;8.80;99.90
14210;DHT22;7188;56.070;12.698;2023-10-31T11:54:01;8.80;99.90
14210;DHT22;7188;56.070;12.698;2023-10-31T11:56:27;8.80;99.90
14210;DHT22;7188;56.070;12.698;2023-10-31T11:59:03;8.80;99.90
14210;DHT22;7188;56.070;12.698;2023-10-31T12:01:28;8.70;99.90
14210;DHT22;7188;56.070;12.698;2023-10-31T12:03:54;8.70;99.90
14210;DHT22;7188;56.070;12.698;2023-10-31T12:06:20;8.70;99.90
14210;DHT22;7188;56.070;12.698;2023-10-31T12:08:47;8.70;99.90
14210;DHT22;7188;56.070;12.698;2023-10-31T12:11:19;8.70;99.90
14210;DHT22;7188;56.070;12.698;2023-10-31T12:14:00;8.70;99.90
14210;DHT22;7188;56.070;12.698;2023-10-31T12:16:28;8.70;99.90
14210;DHT22;7188;56.070;12.698;2023-10-31T12:18:58;8.60;99.90
14210;DHT22;7188;56.070;12.698;2023-10-31T12:21:44;8.60;99.90
14210;DHT22;7188;56.070;12.698;2023-10-31T12:24:13;8.60;99.90
14210;DHT22;7188;56.070;12.698;2023-10-31T12:26:39;8.60;99.90
14210;DHT22;7188;56.070;12.698;2023-10-31T12:29:16;8.60;99.90
14210;DHT22;7188;56.070;12.698;2023-10-31T12:31:43;8.60;99.90
14210;DHT22;7188;56.070;12.698;2023-10-31T12:34:16;8.60;99.90
14210;DHT22;7188;56.070;12.698;2023-10-31T12:36:42;8.60;99.90
14210;DHT22;7188;56.070;12.698;2023-10-31T12:39:11;8.60;99.90
14210;DHT22;7188;56.070;12.698;2023-10-31T12:41:38;8.50;99.90
14210;DHT22;7188;56.070;12.698;2023-10-31T12:44:05;8.50;99.90
14210;DHT22;7188;56.070;12.698;2023-10-31T12:46:32;8.50;99.90
14210;DHT22;7188;56.070;12.698;2023-10-31T12:48:58;8.40;99.90
14210;DHT22;7188;56.070;12.698;2023-10-31T12:51:24;8.30;99.90
14210;DHT22;7188;56.070;12.698;2023-10-31T12:53:50;8.30;99.90
14210;DHT22;7188;56.070;12.698;2023-10-31T12:59:02;8.20;99.90
14210;DHT22;7188;56.070;12.698;2023-10-31T13:01:28;8.10;99.90
14210;DHT22;7188;56.070;12.698;2023-10-31T13:03:53;8.10;99.90
14210;DHT22;7188;56.070;12.698;2023-10-31T13:06:19;8.00;99.90
14210;DHT22;7188;56.070;12.698;2023-10-31T13:08:46;7.90;99.90
14210;DHT22;7188;56.070;12.698;2023-10-31T13:11:14;7.90;99.90
14210;DHT22;7188;56.070;12.698;2023-10-31T13:13:39;7.80;99.90
14210;DHT22;7188;56.070;12.698;2023-10-31T13:16:05;7.70;99.90
14210;DHT22;7188;56.070;12.698;2023-10-31T13:18:31;7.70;99.90
14210;DHT22;7188;56.070;12.698;2023-10-31T13:20:57;7.60;99.90
14210;DHT22;7188;56.070;12.698;2023-10-31T13:23:22;7.70;99.90
14210;DHT22;7188;56.070;12.698;2023-10-31T13:25:48;7.60;99.90
14210;DHT22;7188;56.070;12.698;2023-10-31T13:28:14;7.60;99.90
14210;DHT22;7188;56.070;12.698;2023-10-31T13:30:39;7.50;99.90
14210;DHT22;7188;56.070;12.698;2023-10-31T13:33:06;7.50;99.90
14210;DHT22;7188;56.070;12.698;2023-10-31T13:35:32;7.40;99.90
14210;DHT22;7188;56.070;12.698;2023-10-31T13:37:59;7.40;99.90
14210;DHT22;7188;56.070;12.698;2023-10-31T13:40:26;7.40;99.90
14210;DHT22;7188;56.070;12.698;2023-10-31T13:42:51;7.40;99.90
14210;DHT22;7188;56.070;12.698;2023-10-31T13:45:17;7.40;99.90
14210;DHT22;7188;56.070;12.698;2023-10-31T13:47:42;7.40;99.90
14210;DHT22;7188;56.070;12.698;2023-10-31T13:50:08;7.30;99.90
14210;DHT22;7188;56.070;12.698;2023-10-31T13:52:34;7.30;99.90
14210;DHT22;7188;56.070;12.698;2023-10-31T13:54:59;7.20;99.90
14210;DHT22;7188;56.070;12.698;2023-10-31T13:57:25;7.20;99.90
14210;DHT22;7188;56.070;12.698;2023-10-31T13:59:50;7.20;99.90
14210;DHT22;7188;56.070;12.698;2023-10-31T14:02:16;7.20;99.90
14210;DHT22;7188;56.070;12.698;2023-10-31T14:04:42;7.20;99.90
14210;DHT22;7188;56.070;12.698;2023-10-31T14:07:08;7.10;99.90
14210;DHT22;7188;56.070;12.698;2023-10-31T14:09:34;7.10;99.90
14210;DHT22;7188;56.070;12.698;2023-10-31T14:11:59;7.10;99.90
14210;DHT22;7188;56.070;12.698;2023-10-31T14:14:25;7.00;99.90
14210;DHT22;7188;56.070;12.698;2023-10-31T14:16:51;7.00;99.90
14210;DHT22;7188;56.070;12.698;2023-10-31T14:19:16;7.00;99.90
14210;DHT22;7188;56.070;12.698;2023-10-31T14:21:43;7.00;99.90
14210;DHT22;7188;56.070;12.698;2023-10-31T14:24:09;6.90;99.90
14210;DHT22;7188;56.070;12.698;2023-10-31T14:26:34;6.90;99.90
14210;DHT22;7188;56.070;12.698;2023-10-31T14:29:01;6.90;99.90
14210;DHT22;7188;56.070;12.698;2023-10-31T14:31:27;6.80;99.90
14210;DHT22;7188;56.070;12.698;2023-10-31T14:33:52;6.70;99.90
14210;DHT22;7188;56.070;12.698;2023-10-31T14:36:18;6.70;99.90
14210;DHT22;7188;56.070;12.698;2023-10-31T14:38:44;6.70;99.90
14210;DHT22;7188;56.070;12.698;2023-10-31T14:41:09;6.70;99.90
14210;DHT22;7188;56.070;12.698;2023-10-31T14:43:35;6.60;99.90
14210;DHT22;7188;56.070;12.698;2023-10-31T14:46:03;6.60;99.90
14210;DHT22;7188;56.070;12.698;2023-10-31T14:48:28;6.50;99.90
14210;DHT22;7188;56.070;12.698;2023-10-31T14:50:55;6.50;99.90
14210;DHT22;7188;56.070;12.698;2023-10-31T14:53:22;6.40;99.90
14210;DHT22;7188;56.070;12.698;2023-10-31T14:55:48;6.50;99.90
14210;DHT22;7188;56.070;12.698;2023-10-31T14:58:13;6.50;99.90
14210;DHT22;7188;56.070;12.698;2023-10-31T15:00:39;6.50;99.90
14210;DHT22;7188;56.070;12.698;2023-10-31T15:03:05;6.50;99.90
14210;DHT22;7188;56.070;12.698;2023-10-31T15:05:31;6.40;99.90
14210;DHT22;7188;56.070;12.698;2023-10-31T15:07:57;6.50;99.90
14210;DHT22;7188;56.070;12.698;2023-10-31T15:10:24;6.50;99.90
14210;DHT22;7188;56.070;12.698;2023-10-31T15:12:51;6.40;99.90
14210;DHT22;7188;56.070;12.698;2023-10-31T15:15:16;6.50;99.90
14210;DHT22;7188;56.070;12.698;2023-10-31T15:17:42;6.40;99.90
14210;DHT22;7188;56.070;12.698;2023-10-31T15:20:08;6.40;99.90
14210;DHT22;7188;56.070;12.698;2023-10-31T15:22:40;6.40;99.90
14210;DHT22;7188;56.070;12.698;2023-10-31T15:25:07;6.40;99.90
14210;DHT22;7188;56.070;12.698;2023-10-31T15:27:33;6.40;99.90
14210;DHT22;7188;56.070;12.698;2023-10-31T15:29:59;6.40;99.90
14210;DHT22;7188;56.070;12.698;2023-10-31T15:32:25;6.40;99.90
14210;DHT22;7188;56.070;12.698;2023-10-31T15:34:50;6.40;99.90
14210;DHT22;7188;56.070;12.698;2023-10-31T15:37:16;6.30;99.90
14210;DHT22;7188;56.070;12.698;2023-10-31T15:39:42;6.30;99.90
14210;DHT22;7188;56.070;12.698;2023-10-31T15:42:08;6.30;99.90